Altamont, North Carolina
Current Conditions -  °F | °C
As of 3:15 PM on Friday 31 Oct 2014 (Local Time) from KTNB Reporting Station
Heavy Rain Heavy Rain  
Wind Chill: 43°   Ceiling: 4400
Heat Index: 47°   Visibility: 7mi
Dew Point: 37°   Wind: 8mph
Humidity: 68%   Direction: 300°WNW
Pressure: 29.82"   Gusts: NA
Location:  36.0227°N, 81.9499°W
Report Text: KTNB 311915Z AUTO 30007KT 7SM +RA SCT034 BKN044 BKN050 08/03 A2982 RMK AO2 T00830028
Loading
Personal Weather Stations






























Interactive Weather Map
Tropical Storm Tracking
New forecast layout! Learn more

10-Day Weather Forecast

Advertisements
Track Severe Weather on mobile